sensor_id;sensor_type;location;lat;lon;timestamp;pressure;altitude;pressure_sealevel;temperature;humidity
57024;BME280;42916;54.346;18.562;2023-11-19T00:00:01;100941.84;;;1.38;100.00
57024;BME280;42916;54.346;18.562;2023-11-19T00:02:34;100931.61;;;1.39;100.00
57024;BME280;42916;54.346;18.562;2023-11-19T00:05:01;100930.78;;;1.36;100.00
57024;BME280;42916;54.346;18.562;2023-11-19T00:07:27;100922.22;;;1.31;100.00
57024;BME280;42916;54.346;18.562;2023-11-19T00:09:54;100918.63;;;1.28;100.00
57024;BME280;42916;54.346;18.562;2023-11-19T00:12:21;100916.64;;;1.26;100.00
57024;BME280;42916;54.346;18.562;2023-11-19T00:14:48;100914.20;;;1.22;100.00
57024;BME280;42916;54.346;18.562;2023-11-19T00:17:15;100908.84;;;1.18;100.00
57024;BME280;42916;54.346;18.562;2023-11-19T00:19:42;100902.36;;;1.13;100.00
57024;BME280;42916;54.346;18.562;2023-11-19T00:22:09;100904.33;;;1.09;100.00
57024;BME280;42916;54.346;18.562;2023-11-19T00:24:36;100897.80;;;1.03;100.00
57024;BME280;42916;54.346;18.562;2023-11-19T00:27:03;100895.21;;;1.00;100.00
57024;BME280;42916;54.346;18.562;2023-11-19T00:29:29;100889.27;;;0.96;100.00
57024;BME280;42916;54.346;18.562;2023-11-19T00:31:56;100893.30;;;0.93;100.00
57024;BME280;42916;54.346;18.562;2023-11-19T00:34:23;100891.64;;;0.92;100.00
57024;BME280;42916;54.346;18.562;2023-11-19T00:36:49;100889.33;;;0.92;100.00
57024;BME280;42916;54.346;18.562;2023-11-19T00:39:16;100891.53;;;0.91;100.00
57024;BME280;42916;54.346;18.562;2023-11-19T00:41:44;100895.58;;;0.92;100.00
57024;BME280;42916;54.346;18.562;2023-11-19T00:44:12;100900.88;;;0.91;100.00
57024;BME280;42916;54.346;18.562;2023-11-19T00:46:39;100902.58;;;0.89;100.00
57024;BME280;42916;54.346;18.562;2023-11-19T00:49:06;100899.32;;;0.86;100.00
57024;BME280;42916;54.346;18.562;2023-11-19T00:51:33;100898.63;;;0.84;100.00
57024;BME280;42916;54.346;18.562;2023-11-19T00:53:59;100891.96;;;0.83;100.00
57024;BME280;42916;54.346;18.562;2023-11-19T00:56:27;100890.08;;;0.83;100.00
57024;BME280;42916;54.346;18.562;2023-11-19T00:58:55;100883.14;;;0.82;100.00
57024;BME280;42916;54.346;18.562;2023-11-19T01:01:22;100878.76;;;0.82;100.00
57024;BME280;42916;54.346;18.562;2023-11-19T01:03:49;100878.16;;;0.82;100.00
57024;BME280;42916;54.346;18.562;2023-11-19T01:06:26;100881.27;;;0.82;100.00
57024;BME280;42916;54.346;18.562;2023-11-19T01:08:53;100879.41;;;0.81;100.00
57024;BME280;42916;54.346;18.562;2023-11-19T01:11:24;100877.90;;;0.78;100.00
57024;BME280;42916;54.346;18.562;2023-11-19T01:13:51;100876.02;;;0.78;100.00
57024;BME280;42916;54.346;18.562;2023-11-19T01:16:18;100870.30;;;0.79;100.00
57024;BME280;42916;54.346;18.562;2023-11-19T01:18:48;100868.52;;;0.81;100.00
57024;BME280;42916;54.346;18.562;2023-11-19T01:21:15;100853.27;;;0.83;100.00
57024;BME280;42916;54.346;18.562;2023-11-19T01:23:42;100849.03;;;0.85;100.00
57024;BME280;42916;54.346;18.562;2023-11-19T01:26:10;100846.48;;;0.87;100.00
57024;BME280;42916;54.346;18.562;2023-11-19T01:28:39;100848.52;;;0.90;100.00
57024;BME280;42916;54.346;18.562;2023-11-19T01:31:09;100846.48;;;0.90;100.00
57024;BME280;42916;54.346;18.562;2023-11-19T01:33:36;100843.00;;;0.90;100.00
57024;BME280;42916;54.346;18.562;2023-11-19T01:36:03;100845.34;;;0.89;100.00
57024;BME280;42916;54.346;18.562;2023-11-19T01:38:30;100844.79;;;0.88;100.00
57024;BME280;42916;54.346;18.562;2023-11-19T01:40:57;100844.54;;;0.87;100.00
57024;BME280;42916;54.346;18.562;2023-11-19T01:43:40;100840.30;;;0.85;100.00
57024;BME280;42916;54.346;18.562;2023-11-19T01:46:09;100838.65;;;0.86;100.00
57024;BME280;42916;54.346;18.562;2023-11-19T01:48:39;100831.02;;;0.85;100.00
57024;BME280;42916;54.346;18.562;2023-11-19T01:51:08;100827.22;;;0.84;100.00
57024;BME280;42916;54.346;18.562;2023-11-19T01:53:36;100821.11;;;0.81;100.00
57024;BME280;42916;54.346;18.562;2023-11-19T01:56:05;100819.84;;;0.79;100.00
57024;BME280;42916;54.346;18.562;2023-11-19T01:58:37;100818.05;;;0.76;100.00
57024;BME280;42916;54.346;18.562;2023-11-19T02:01:06;100810.70;;;0.72;100.00
57024;BME280;42916;54.346;18.562;2023-11-19T02:03:34;100803.25;;;0.71;100.00
57024;BME280;42916;54.346;18.562;2023-11-19T02:06:01;100799.02;;;0.70;100.00
57024;BME280;42916;54.346;18.562;2023-11-19T02:08:29;100790.27;;;0.69;100.00
57024;BME280;42916;54.346;18.562;2023-11-19T02:10:56;100784.76;;;0.67;100.00
57024;BME280;42916;54.346;18.562;2023-11-19T02:13:27;100784.27;;;0.65;100.00
57024;BME280;42916;54.346;18.562;2023-11-19T02:15:55;100778.08;;;0.65;100.00
57024;BME280;42916;54.346;18.562;2023-11-19T02:18:25;100773.98;;;0.64;100.00
57024;BME280;42916;54.346;18.562;2023-11-19T02:20:58;100766.64;;;0.63;100.00
57024;BME280;42916;54.346;18.562;2023-11-19T02:23:30;100761.50;;;0.60;100.00
57024;BME280;42916;54.346;18.562;2023-11-19T02:26:18;100762.44;;;0.58;100.00
57024;BME280;42916;54.346;18.562;2023-11-19T02:28:49;100754.62;;;0.56;100.00
57024;BME280;42916;54.346;18.562;2023-11-19T02:31:16;100745.94;;;0.56;100.00
57024;BME280;42916;54.346;18.562;2023-11-19T02:33:43;100737.44;;;0.55;100.00
57024;BME280;42916;54.346;18.562;2023-11-19T02:36:10;100733.22;;;0.54;100.00
57024;BME280;42916;54.346;18.562;2023-11-19T02:38:37;100728.73;;;0.53;100.00
57024;BME280;42916;54.346;18.562;2023-11-19T02:41:04;100720.61;;;0.51;100.00
57024;BME280;42916;54.346;18.562;2023-11-19T02:43:35;100716.92;;;0.47;100.00
57024;BME280;42916;54.346;18.562;2023-11-19T02:46:03;100713.83;;;0.42;100.00
57024;BME280;42916;54.346;18.562;2023-11-19T02:48:33;100717.91;;;0.37;100.00
57024;BME280;42916;54.346;18.562;2023-11-19T02:51:02;100718.55;;;0.33;100.00
57024;BME280;42916;54.346;18.562;2023-11-19T02:53:36;100718.35;;;0.32;100.00
57024;BME280;42916;54.346;18.562;2023-11-19T02:56:06;100712.67;;;0.29;100.00
57024;BME280;42916;54.346;18.562;2023-11-19T02:58:44;100709.98;;;0.23;100.00
57024;BME280;42916;54.346;18.562;2023-11-19T03:01:12;100705.70;;;0.18;100.00
57024;BME280;42916;54.346;18.562;2023-11-19T03:03:50;100702.59;;;0.13;100.00
57024;BME280;42916;54.346;18.562;2023-11-19T03:06:24;100695.77;;;0.06;100.00
57024;BME280;42916;54.346;18.562;2023-11-19T03:08:51;100692.50;;;0.00;100.00
57024;BME280;42916;54.346;18.562;2023-11-19T03:11:17;100692.96;;;-0.04;100.00
57024;BME280;42916;54.346;18.562;2023-11-19T03:13:44;100689.58;;;-0.07;100.00
57024;BME280;42916;54.346;18.562;2023-11-19T03:16:11;100689.11;;;-0.09;100.00
57024;BME280;42916;54.346;18.562;2023-11-19T03:18:38;100689.55;;;-0.10;100.00
57024;BME280;42916;54.346;18.562;2023-11-19T03:21:06;100677.80;;;-0.12;100.00
57024;BME280;42916;54.346;18.562;2023-11-19T03:23:34;100671.39;;;-0.16;100.00
57024;BME280;42916;54.346;18.562;2023-11-19T03:26:02;100662.98;;;-0.19;100.00
57024;BME280;42916;54.346;18.562;2023-11-19T03:28:32;100656.19;;;-0.22;100.00
57024;BME280;42916;54.346;18.562;2023-11-19T03:30:59;100649.95;;;-0.24;100.00
57024;BME280;42916;54.346;18.562;2023-11-19T03:33:26;100647.93;;;-0.26;100.00
57024;BME280;42916;54.346;18.562;2023-11-19T03:35:55;100645.07;;;-0.28;100.00
57024;BME280;42916;54.346;18.562;2023-11-19T03:38:24;100646.52;;;-0.29;100.00
57024;BME280;42916;54.346;18.562;2023-11-19T03:40:53;100649.63;;;-0.34;100.00
57024;BME280;42916;54.346;18.562;2023-11-19T03:43:20;100645.59;;;-0.40;100.00
57024;BME280;42916;54.346;18.562;2023-11-19T03:45:47;100638.52;;;-0.44;100.00
57024;BME280;42916;54.346;18.562;2023-11-19T03:48:14;100629.98;;;-0.44;100.00
57024;BME280;42916;54.346;18.562;2023-11-19T03:50:42;100624.36;;;-0.45;100.00
57024;BME280;42916;54.346;18.562;2023-11-19T03:53:11;100617.89;;;-0.45;100.00
57024;BME280;42916;54.346;18.562;2023-11-19T03:55:38;100610.63;;;-0.46;100.00
57024;BME280;42916;54.346;18.562;2023-11-19T03:58:04;100605.16;;;-0.45;100.00
57024;BME280;42916;54.346;18.562;2023-11-19T04:00:32;100601.68;;;-0.44;100.00
57024;BME280;42916;54.346;18.562;2023-11-19T04:02:59;100599.42;;;-0.46;100.00
57024;BME280;42916;54.346;18.562;2023-11-19T04:05:27;100593.08;;;-0.47;100.00
57024;BME280;42916;54.346;18.562;2023-11-19T04:07:53;100595.76;;;-0.47;100.00
57024;BME280;42916;54.346;18.562;2023-11-19T04:10:20;100590.27;;;-0.46;100.00
57024;BME280;42916;54.346;18.562;2023-11-19T04:12:48;100588.91;;;-0.43;100.00
57024;BME280;42916;54.346;18.562;2023-11-19T04:15:15;100579.77;;;-0.40;100.00
57024;BME280;42916;54.346;18.562;2023-11-19T04:17:42;100578.89;;;-0.38;100.00
57024;BME280;42916;54.346;18.562;2023-11-19T04:20:09;100570.01;;;-0.36;100.00
57024;BME280;42916;54.346;18.562;2023-11-19T04:22:37;100558.33;;;-0.37;100.00
57024;BME280;42916;54.346;18.562;2023-11-19T04:25:04;100551.52;;;-0.39;100.00
57024;BME280;42916;54.346;18.562;2023-11-19T04:27:31;100548.23;;;-0.38;100.00
57024;BME280;42916;54.346;18.562;2023-11-19T04:29:57;100545.33;;;-0.37;100.00
57024;BME280;42916;54.346;18.562;2023-11-19T04:32:24;100543.42;;;-0.36;100.00
57024;BME280;42916;54.346;18.562;2023-11-19T04:34:53;100542.38;;;-0.36;100.00
57024;BME280;42916;54.346;18.562;2023-11-19T04:37:19;100538.02;;;-0.37;100.00
57024;BME280;42916;54.346;18.562;2023-11-19T04:39:46;100528.45;;;-0.36;100.00
57024;BME280;42916;54.346;18.562;2023-11-19T04:42:13;100523.06;;;-0.36;100.00
57024;BME280;42916;54.346;18.562;2023-11-19T04:44:39;100520.77;;;-0.38;100.00
57024;BME280;42916;54.346;18.562;2023-11-19T04:47:06;100517.58;;;-0.40;100.00
57024;BME280;42916;54.346;18.562;2023-11-19T04:49:33;100513.10;;;-0.39;100.00
57024;BME280;42916;54.346;18.562;2023-11-19T04:51:59;100506.84;;;-0.37;100.00
57024;BME280;42916;54.346;18.562;2023-11-19T04:54:26;100504.67;;;-0.37;100.00
57024;BME280;42916;54.346;18.562;2023-11-19T04:56:53;100498.95;;;-0.37;100.00
57024;BME280;42916;54.346;18.562;2023-11-19T04:59:20;100492.05;;;-0.39;100.00
57024;BME280;42916;54.346;18.562;2023-11-19T05:01:47;100488.60;;;-0.40;100.00
57024;BME280;42916;54.346;18.562;2023-11-19T05:04:14;100490.10;;;-0.41;100.00
57024;BME280;42916;54.346;18.562;2023-11-19T05:06:41;100487.15;;;-0.43;100.00
57024;BME280;42916;54.346;18.562;2023-11-19T05:09:08;100485.57;;;-0.42;100.00
57024;BME280;42916;54.346;18.562;2023-11-19T05:11:35;100486.88;;;-0.42;100.00
57024;BME280;42916;54.346;18.562;2023-11-19T05:14:03;100481.59;;;-0.43;100.00
57024;BME280;42916;54.346;18.562;2023-11-19T05:16:32;100484.23;;;-0.45;100.00
57024;BME280;42916;54.346;18.562;2023-11-19T05:18:59;100488.81;;;-0.46;100.00
57024;BME280;42916;54.346;18.562;2023-11-19T05:21:26;100484.29;;;-0.49;100.00
57024;BME280;42916;54.346;18.562;2023-11-19T05:23:52;100480.02;;;-0.52;100.00
57024;BME280;42916;54.346;18.562;2023-11-19T05:26:21;100473.39;;;-0.57;100.00
57024;BME280;42916;54.346;18.562;2023-11-19T05:28:48;100469.39;;;-0.60;100.00
57024;BME280;42916;54.346;18.562;2023-11-19T05:31:16;100467.20;;;-0.63;100.00
57024;BME280;42916;54.346;18.562;2023-11-19T05:33:43;100463.23;;;-0.64;100.00
57024;BME280;42916;54.346;18.562;2023-11-19T05:36:11;100455.95;;;-0.65;100.00
57024;BME280;42916;54.346;18.562;2023-11-19T05:38:39;100448.98;;;-0.66;100.00
57024;BME280;42916;54.346;18.562;2023-11-19T05:41:06;100442.61;;;-0.68;100.00
57024;BME280;42916;54.346;18.562;2023-11-19T05:43:33;100441.54;;;-0.71;100.00
57024;BME280;42916;54.346;18.562;2023-11-19T05:45:59;100439.13;;;-0.74;100.00
57024;BME280;42916;54.346;18.562;2023-11-19T05:48:27;100431.41;;;-0.76;100.00
57024;BME280;42916;54.346;18.562;2023-11-19T05:50:55;100429.97;;;-0.78;100.00
57024;BME280;42916;54.346;18.562;2023-11-19T05:53:22;100427.67;;;-0.80;100.00
57024;BME280;42916;54.346;18.562;2023-11-19T05:55:48;100430.20;;;-0.81;100.00
57024;BME280;42916;54.346;18.562;2023-11-19T05:58:25;100427.30;;;-0.84;100.00
57024;BME280;42916;54.346;18.562;2023-11-19T06:00:52;100424.52;;;-0.87;100.00
57024;BME280;42916;54.346;18.562;2023-11-19T06:03:19;100421.23;;;-0.91;100.00
57024;BME280;42916;54.346;18.562;2023-11-19T06:05:48;100421.04;;;-0.96;100.00
57024;BME280;42916;54.346;18.562;2023-11-19T06:08:15;100417.38;;;-1.00;100.00
57024;BME280;42916;54.346;18.562;2023-11-19T06:10:44;100410.29;;;-1.01;100.00
57024;BME280;42916;54.346;18.562;2023-11-19T06:13:13;100402.41;;;-1.02;100.00
57024;BME280;42916;54.346;18.562;2023-11-19T06:15:41;100401.45;;;-1.03;100.00
57024;BME280;42916;54.346;18.562;2023-11-19T06:18:08;100403.79;;;-1.05;100.00
57024;BME280;42916;54.346;18.562;2023-11-19T06:20:36;100402.16;;;-1.09;100.00
57024;BME280;42916;54.346;18.562;2023-11-19T06:23:03;100400.87;;;-1.12;100.00
57024;BME280;42916;54.346;18.562;2023-11-19T06:25:29;100397.96;;;-1.15;100.00
57024;BME280;42916;54.346;18.562;2023-11-19T06:27:56;100393.81;;;-1.17;100.00
57024;BME280;42916;54.346;18.562;2023-11-19T06:30:23;100392.80;;;-1.19;100.00
57024;BME280;42916;54.346;18.562;2023-11-19T06:32:51;100395.00;;;-1.20;100.00
57024;BME280;42916;54.346;18.562;2023-11-19T06:35:18;100392.10;;;-1.19;100.00
57024;BME280;42916;54.346;18.562;2023-11-19T06:37:44;100390.48;;;-1.19;100.00
57024;BME280;42916;54.346;18.562;2023-11-19T06:40:11;100388.83;;;-1.20;100.00
57024;BME280;42916;54.346;18.562;2023-11-19T06:42:38;100381.84;;;-1.21;100.00
57024;BME280;42916;54.346;18.562;2023-11-19T06:45:06;100376.05;;;-1.21;100.00
57024;BME280;42916;54.346;18.562;2023-11-19T06:47:33;100368.48;;;-1.21;100.00
57024;BME280;42916;54.346;18.562;2023-11-19T06:49:59;100364.14;;;-1.21;100.00
57024;BME280;42916;54.346;18.562;2023-11-19T06:52:26;100363.99;;;-1.18;100.00
57024;BME280;42916;54.346;18.562;2023-11-19T06:54:53;100361.07;;;-1.16;100.00
57024;BME280;42916;54.346;18.562;2023-11-19T06:57:19;100363.52;;;-1.12;100.00
57024;BME280;42916;54.346;18.562;2023-11-19T06:59:46;100359.44;;;-1.09;100.00
57024;BME280;42916;54.346;18.562;2023-11-19T07:02:13;100354.63;;;-1.08;100.00
57024;BME280;42916;54.346;18.562;2023-11-19T07:04:40;100353.48;;;-1.05;100.00
57024;BME280;42916;54.346;18.562;2023-11-19T07:07:07;100345.74;;;-1.03;100.00
57024;BME280;42916;54.346;18.562;2023-11-19T07:09:34;100341.60;;;-1.00;100.00
57024;BME280;42916;54.346;18.562;2023-11-19T07:12:00;100339.87;;;-0.96;100.00
57024;BME280;42916;54.346;18.562;2023-11-19T07:14:28;100340.35;;;-0.91;100.00
57024;BME280;42916;54.346;18.562;2023-11-19T07:16:55;100340.07;;;-0.85;100.00
57024;BME280;42916;54.346;18.562;2023-11-19T07:19:22;100335.92;;;-0.81;100.00
57024;BME280;42916;54.346;18.562;2023-11-19T07:21:49;100336.88;;;-0.77;100.00
57024;BME280;42916;54.346;18.562;2023-11-19T07:24:15;100333.20;;;-0.75;100.00
57024;BME280;42916;54.346;18.562;2023-11-19T07:26:43;100330.25;;;-0.74;100.00
57024;BME280;42916;54.346;18.562;2023-11-19T07:29:11;100327.92;;;-0.73;100.00
57024;BME280;42916;54.346;18.562;2023-11-19T07:31:37;100327.77;;;-0.70;100.00
57024;BME280;42916;54.346;18.562;2023-11-19T07:34:04;100318.97;;;-0.66;100.00
57024;BME280;42916;54.346;18.562;2023-11-19T07:36:32;100313.28;;;-0.62;100.00
57024;BME280;42916;54.346;18.562;2023-11-19T07:38:59;100308.71;;;-0.60;100.00
57024;BME280;42916;54.346;18.562;2023-11-19T07:41:26;100303.05;;;-0.57;100.00
57024;BME280;42916;54.346;18.562;2023-11-19T07:43:53;100300.72;;;-0.55;100.00
57024;BME280;42916;54.346;18.562;2023-11-19T07:46:20;100298.45;;;-0.50;100.00
57024;BME280;42916;54.346;18.562;2023-11-19T07:48:47;100292.74;;;-0.47;100.00
57024;BME280;42916;54.346;18.562;2023-11-19T07:51:14;100281.21;;;-0.44;100.00
57024;BME280;42916;54.346;18.562;2023-11-19T07:53:41;100284.27;;;-0.40;100.00
57024;BME280;42916;54.346;18.562;2023-11-19T07:56:08;100285.55;;;-0.36;100.00
57024;BME280;42916;54.346;18.562;2023-11-19T07:58:35;100277.00;;;-0.33;100.00
57024;BME280;42916;54.346;18.562;2023-11-19T08:01:02;100272.15;;;-0.31;100.00
57024;BME280;42916;54.346;18.562;2023-11-19T08:03:29;100273.08;;;-0.30;100.00
57024;BME280;42916;54.346;18.562;2023-11-19T08:05:57;100272.80;;;-0.29;100.00
57024;BME280;42916;54.346;18.562;2023-11-19T08:08:23;100274.30;;;-0.27;100.00
57024;BME280;42916;54.346;18.562;2023-11-19T08:10:50;100265.63;;;-0.23;100.00
57024;BME280;42916;54.346;18.562;2023-11-19T08:13:21;100266.48;;;-0.17;100.00
57024;BME280;42916;54.346;18.562;2023-11-19T08:15:48;100254.05;;;-0.12;100.00
57024;BME280;42916;54.346;18.562;2023-11-19T08:18:15;100254.45;;;-0.08;100.00
57024;BME280;42916;54.346;18.562;2023-11-19T08:20:41;100254.60;;;-0.06;100.00
57024;BME280;42916;54.346;18.562;2023-11-19T08:23:10;100247.71;;;-0.00;100.00
57024;BME280;42916;54.346;18.562;2023-11-19T08:25:37;100242.96;;;0.02;100.00
57024;BME280;42916;54.346;18.562;2023-11-19T08:28:04;100249.02;;;0.02;100.00
57024;BME280;42916;54.346;18.562;2023-11-19T08:30:30;100244.31;;;0.05;100.00
57024;BME280;42916;54.346;18.562;2023-11-19T08:32:57;100238.09;;;0.10;100.00
57024;BME280;42916;54.346;18.562;2023-11-19T08:35:25;100230.80;;;0.13;100.00
57024;BME280;42916;54.346;18.562;2023-11-19T08:37:51;100222.38;;;0.14;100.00
57024;BME280;42916;54.346;18.562;2023-11-19T08:40:19;100214.90;;;0.11;100.00
57024;BME280;42916;54.346;18.562;2023-11-19T08:42:46;100212.81;;;0.08;100.00
57024;BME280;42916;54.346;18.562;2023-11-19T08:45:13;100204.92;;;0.04;100.00
57024;BME280;42916;54.346;18.562;2023-11-19T08:47:40;100199.85;;;0.03;100.00
57024;BME280;42916;54.346;18.562;2023-11-19T08:50:07;100191.20;;;0.07;100.00
57024;BME280;42916;54.346;18.562;2023-11-19T08:52:34;100188.13;;;0.13;100.00
57024;BME280;42916;54.346;18.562;2023-11-19T08:55:01;100179.73;;;0.17;100.00
57024;BME280;42916;54.346;18.562;2023-11-19T08:57:28;100175.10;;;0.14;100.00
57024;BME280;42916;54.346;18.562;2023-11-19T08:59:55;100176.77;;;0.18;100.00
57024;BME280;42916;54.346;18.562;2023-11-19T09:02:22;100176.52;;;0.22;100.00
57024;BME280;42916;54.346;18.562;2023-11-19T09:04:49;100172.96;;;0.24;100.00
57024;BME280;42916;54.346;18.562;2023-11-19T09:07:15;100171.49;;;0.27;100.00
57024;BME280;42916;54.346;18.562;2023-11-19T09:09:42;100170.14;;;0.31;100.00
57024;BME280;42916;54.346;18.562;2023-11-19T09:12:09;100171.48;;;0.39;100.00
57024;BME280;42916;54.346;18.562;2023-11-19T09:14:35;100164.02;;;0.44;100.00
57024;BME280;42916;54.346;18.562;2023-11-19T09:17:02;100157.98;;;0.47;100.00
57024;BME280;42916;54.346;18.562;2023-11-19T09:19:32;100156.23;;;0.49;100.00
57024;BME280;42916;54.346;18.562;2023-11-19T09:21:59;100150.18;;;0.50;100.00
57024;BME280;42916;54.346;18.562;2023-11-19T09:24:26;100152.70;;;0.50;100.00
57024;BME280;42916;54.346;18.562;2023-11-19T09:26:52;100147.21;;;0.50;100.00
57024;BME280;42916;54.346;18.562;2023-11-19T09:29:21;100144.17;;;0.49;100.00
57024;BME280;42916;54.346;18.562;2023-11-19T09:31:48;100145.40;;;0.49;100.00
57024;BME280;42916;54.346;18.562;2023-11-19T09:34:14;100138.86;;;0.49;100.00
57024;BME280;42916;54.346;18.562;2023-11-19T09:36:41;100131.20;;;0.48;100.00
57024;BME280;42916;54.346;18.562;2023-11-19T09:39:11;100122.65;;;0.47;100.00
57024;BME280;42916;54.346;18.562;2023-11-19T09:41:39;100119.19;;;0.45;100.00
57024;BME280;42916;54.346;18.562;2023-11-19T09:44:06;100112.77;;;0.45;100.00
57024;BME280;42916;54.346;18.562;2023-11-19T09:46:33;100113.57;;;0.47;100.00
57024;BME280;42916;54.346;18.562;2023-11-19T09:49:01;100109.05;;;0.50;100.00
57024;BME280;42916;54.346;18.562;2023-11-19T09:51:30;100107.10;;;0.54;100.00
57024;BME280;42916;54.346;18.562;2023-11-19T09:53:57;100105.91;;;0.54;100.00
57024;BME280;42916;54.346;18.562;2023-11-19T09:56:24;100101.39;;;0.55;100.00
57024;BME280;42916;54.346;18.562;2023-11-19T09:58:51;100098.98;;;0.59;100.00
57024;BME280;42916;54.346;18.562;2023-11-19T10:01:18;100097.75;;;0.60;100.00
57024;BME280;42916;54.346;18.562;2023-11-19T10:03:47;100090.95;;;0.59;100.00
57024;BME280;42916;54.346;18.562;2023-11-19T10:06:14;100089.05;;;0.59;100.00
57024;BME280;42916;54.346;18.562;2023-11-19T10:08:42;100084.70;;;0.60;100.00
57024;BME280;42916;54.346;18.562;2023-11-19T10:11:09;100079.22;;;0.60;100.00
57024;BME280;42916;54.346;18.562;2023-11-19T10:13:39;100071.42;;;0.58;100.00
57024;BME280;42916;54.346;18.562;2023-11-19T10:16:08;100064.13;;;0.55;100.00
57024;BME280;42916;54.346;18.562;2023-11-19T10:18:35;100055.95;;;0.55;100.00
57024;BME280;42916;54.346;18.562;2023-11-19T10:21:05;100058.52;;;0.50;100.00
57024;BME280;42916;54.346;18.562;2023-11-19T10:23:54;100044.77;;;0.46;100.00
57024;BME280;42916;54.346;18.562;2023-11-19T10:26:23;100038.95;;;0.45;100.00
57024;BME280;42916;54.346;18.562;2023-11-19T10:28:50;100031.65;;;0.43;100.00
57024;BME280;42916;54.346;18.562;2023-11-19T10:31:18;100026.80;;;0.44;100.00
57024;BME280;42916;54.346;18.562;2023-11-19T10:33:45;100021.83;;;0.47;100.00
57024;BME280;42916;54.346;18.562;2023-11-19T10:36:12;100017.39;;;0.48;100.00
57024;BME280;42916;54.346;18.562;2023-11-19T10:38:40;100010.46;;;0.48;100.00
57024;BME280;42916;54.346;18.562;2023-11-19T10:41:07;100006.46;;;0.47;100.00
57024;BME280;42916;54.346;18.562;2023-11-19T10:43:43;100006.77;;;0.49;100.00
57024;BME280;42916;54.346;18.562;2023-11-19T10:46:13;100003.21;;;0.47;100.00
57024;BME280;42916;54.346;18.562;2023-11-19T10:48:40;99993.86;;;0.44;100.00
57024;BME280;42916;54.346;18.562;2023-11-19T10:51:08;99988.42;;;0.45;100.00
57024;BME280;42916;54.346;18.562;2023-11-19T10:53:38;99983.16;;;0.45;100.00
57024;BME280;42916;54.346;18.562;2023-11-19T10:56:10;99981.48;;;0.47;100.00
57024;BME280;42916;54.346;18.562;2023-11-19T10:58:43;99977.98;;;0.51;100.00
57024;BME280;42916;54.346;18.562;2023-11-19T11:01:23;99975.90;;;0.53;100.00
57024;BME280;42916;54.346;18.562;2023-11-19T11:03:52;99969.16;;;0.54;100.00
57024;BME280;42916;54.346;18.562;2023-11-19T11:06:21;99968.26;;;0.57;100.00
57024;BME280;42916;54.346;18.562;2023-11-19T11:08:48;99960.90;;;0.57;100.00
57024;BME280;42916;54.346;18.562;2023-11-19T11:11:16;99955.50;;;0.56;100.00
57024;BME280;42916;54.346;18.562;2023-11-19T11:13:47;99949.77;;;0.55;100.00
57024;BME280;42916;54.346;18.562;2023-11-19T11:16:18;99941.92;;;0.59;100.00
57024;BME280;42916;54.346;18.562;2023-11-19T11:18:49;99937.48;;;0.63;100.00
57024;BME280;42916;54.346;18.562;2023-11-19T11:21:20;99935.06;;;0.66;100.00
57024;BME280;42916;54.346;18.562;2023-11-19T11:29:57;99921.31;;;0.71;100.00
57024;BME280;42916;54.346;18.562;2023-11-19T11:32:33;99917.25;;;0.72;100.00
57024;BME280;42916;54.346;18.562;2023-11-19T11:38:08;99912.52;;;0.72;100.00
57024;BME280;42916;54.346;18.562;2023-11-19T11:40:35;99911.44;;;0.72;100.00
57024;BME280;42916;54.346;18.562;2023-11-19T11:43:43;99906.86;;;0.73;100.00
57024;BME280;42916;54.346;18.562;2023-11-19T11:49:05;99897.89;;;0.74;100.00
57024;BME280;42916;54.346;18.562;2023-11-19T11:51:58;99894.17;;;0.74;100.00
57024;BME280;42916;54.346;18.562;2023-11-19T11:54:28;99890.68;;;0.73;100.00
57024;BME280;42916;54.346;18.562;2023-11-19T11:57:06;99885.36;;;0.71;100.00
57024;BME280;42916;54.346;18.562;2023-11-19T11:59:43;99885.85;;;0.69;100.00
57024;BME280;42916;54.346;18.562;2023-11-19T12:02:12;99875.21;;;0.69;100.00
57024;BME280;42916;54.346;18.562;2023-11-19T12:04:40;99869.99;;;0.70;100.00
57024;BME280;42916;54.346;18.562;2023-11-19T12:09:41;99860.31;;;0.66;100.00
57024;BME280;42916;54.346;18.562;2023-11-19T12:20:03;99848.66;;;0.63;100.00
57024;BME280;42916;54.346;18.562;2023-11-19T12:22:32;99839.01;;;0.64;100.00
57024;BME280;42916;54.346;18.562;2023-11-19T12:24:58;99836.30;;;0.66;100.00
57024;BME280;42916;54.346;18.562;2023-11-19T12:27:25;99828.35;;;0.68;100.00
57024;BME280;42916;54.346;18.562;2023-11-19T12:29:52;99823.77;;;0.68;100.00
57024;BME280;42916;54.346;18.562;2023-11-19T12:32:19;99821.06;;;0.68;100.00
57024;BME280;42916;54.346;18.562;2023-11-19T12:34:46;99812.58;;;0.66;100.00
57024;BME280;42916;54.346;18.562;2023-11-19T12:37:12;99809.61;;;0.62;100.00
57024;BME280;42916;54.346;18.562;2023-11-19T12:39:39;99801.22;;;0.60;100.00
57024;BME280;42916;54.346;18.562;2023-11-19T12:42:06;99797.58;;;0.60;100.00
57024;BME280;42916;54.346;18.562;2023-11-19T12:44:33;99790.63;;;0.60;100.00
57024;BME280;42916;54.346;18.562;2023-11-19T12:47:05;99788.41;;;0.58;100.00
57024;BME280;42916;54.346;18.562;2023-11-19T12:49:33;99782.35;;;0.54;100.00
57024;BME280;42916;54.346;18.562;2023-11-19T12:52:00;99780.90;;;0.51;100.00
57024;BME280;42916;54.346;18.562;2023-11-19T12:54:36;99776.70;;;0.52;100.00
57024;BME280;42916;54.346;18.562;2023-11-19T12:57:04;99773.20;;;0.54;100.00
57024;BME280;42916;54.346;18.562;2023-11-19T12:59:34;99767.80;;;0.58;100.00
57024;BME280;42916;54.346;18.562;2023-11-19T13:02:01;99762.83;;;0.61;100.00
57024;BME280;42916;54.346;18.562;2023-11-19T13:04:32;99753.89;;;0.67;100.00